sensor_id;sensor_type;location;lat;lon;timestamp;P1;durP1;ratioP1;P2;durP2;ratioP2
6499;SDS011;3283;52.330;9.772;2022-08-18T00:00:56;12.80;;;8.77;;
6499;SDS011;3283;52.330;9.772;2022-08-18T00:03:22;15.30;;;8.47;;
6499;SDS011;3283;52.330;9.772;2022-08-18T00:05:47;13.83;;;7.97;;
6499;SDS011;3283;52.330;9.772;2022-08-18T00:08:13;16.50;;;8.33;;
6499;SDS011;3283;52.330;9.772;2022-08-18T00:10:39;12.97;;;8.50;;
6499;SDS011;3283;52.330;9.772;2022-08-18T00:13:05;24.37;;;8.50;;
6499;SDS011;3283;52.330;9.772;2022-08-18T00:15:31;16.07;;;8.23;;
6499;SDS011;3283;52.330;9.772;2022-08-18T00:17:56;13.70;;;8.30;;
6499;SDS011;3283;52.330;9.772;2022-08-18T00:20:22;13.00;;;7.80;;
6499;SDS011;3283;52.330;9.772;2022-08-18T00:22:49;15.77;;;8.50;;
6499;SDS011;3283;52.330;9.772;2022-08-18T00:25:16;13.60;;;8.67;;
6499;SDS011;3283;52.330;9.772;2022-08-18T00:27:42;14.77;;;8.73;;
6499;SDS011;3283;52.330;9.772;2022-08-18T00:30:09;18.80;;;9.73;;
6499;SDS011;3283;52.330;9.772;2022-08-18T00:32:39;16.93;;;8.03;;
6499;SDS011;3283;52.330;9.772;2022-08-18T00:35:16;20.83;;;9.20;;
6499;SDS011;3283;52.330;9.772;2022-08-18T00:37:45;15.13;;;8.10;;
6499;SDS011;3283;52.330;9.772;2022-08-18T00:40:14;21.30;;;8.33;;
6499;SDS011;3283;52.330;9.772;2022-08-18T00:42:52;12.73;;;8.70;;
6499;SDS011;3283;52.330;9.772;2022-08-18T00:45:26;12.20;;;7.60;;
6499;SDS011;3283;52.330;9.772;2022-08-18T00:47:54;12.00;;;7.80;;
6499;SDS011;3283;52.330;9.772;2022-08-18T00:50:26;20.77;;;9.90;;
6499;SDS011;3283;52.330;9.772;2022-08-18T00:52:59;12.63;;;8.07;;
6499;SDS011;3283;52.330;9.772;2022-08-18T00:55:29;15.57;;;8.27;;
6499;SDS011;3283;52.330;9.772;2022-08-18T00:58:03;17.80;;;9.33;;
6499;SDS011;3283;52.330;9.772;2022-08-18T01:00:35;14.67;;;8.30;;
6499;SDS011;3283;52.330;9.772;2022-08-18T01:03:06;14.57;;;8.70;;
6499;SDS011;3283;52.330;9.772;2022-08-18T01:05:39;19.30;;;9.33;;
6499;SDS011;3283;52.330;9.772;2022-08-18T01:08:11;11.53;;;7.73;;
6499;SDS011;3283;52.330;9.772;2022-08-18T01:10:39;17.00;;;8.60;;
6499;SDS011;3283;52.330;9.772;2022-08-18T01:13:05;14.00;;;8.83;;
6499;SDS011;3283;52.330;9.772;2022-08-18T01:15:31;16.57;;;9.73;;
6499;SDS011;3283;52.330;9.772;2022-08-18T01:17:58;15.13;;;10.23;;
6499;SDS011;3283;52.330;9.772;2022-08-18T01:23:43;20.27;;;10.97;;
6499;SDS011;3283;52.330;9.772;2022-08-18T01:26:10;12.93;;;8.60;;
6499;SDS011;3283;52.330;9.772;2022-08-18T01:28:37;17.33;;;10.67;;
6499;SDS011;3283;52.330;9.772;2022-08-18T01:31:05;13.93;;;9.20;;
6499;SDS011;3283;52.330;9.772;2022-08-18T01:33:32;23.90;;;10.40;;
6499;SDS011;3283;52.330;9.772;2022-08-18T01:36:14;12.50;;;8.63;;
6499;SDS011;3283;52.330;9.772;2022-08-18T01:38:45;15.97;;;8.97;;
6499;SDS011;3283;52.330;9.772;2022-08-18T01:41:14;21.43;;;9.63;;
6499;SDS011;3283;52.330;9.772;2022-08-18T01:43:40;25.80;;;11.47;;
6499;SDS011;3283;52.330;9.772;2022-08-18T01:46:06;17.50;;;9.97;;
6499;SDS011;3283;52.330;9.772;2022-08-18T01:48:33;15.87;;;9.37;;
6499;SDS011;3283;52.330;9.772;2022-08-18T01:51:07;14.43;;;9.47;;
6499;SDS011;3283;52.330;9.772;2022-08-18T01:53:35;17.80;;;11.10;;
6499;SDS011;3283;52.330;9.772;2022-08-18T01:56:01;21.57;;;10.20;;
6499;SDS011;3283;52.330;9.772;2022-08-18T01:58:29;21.90;;;11.87;;
6499;SDS011;3283;52.330;9.772;2022-08-18T02:00:56;17.30;;;11.37;;
6499;SDS011;3283;52.330;9.772;2022-08-18T02:03:27;20.07;;;14.00;;
6499;SDS011;3283;52.330;9.772;2022-08-18T02:06:00;23.67;;;15.10;;
6499;SDS011;3283;52.330;9.772;2022-08-18T02:08:27;16.43;;;12.60;;
6499;SDS011;3283;52.330;9.772;2022-08-18T02:10:53;20.30;;;12.40;;
6499;SDS011;3283;52.330;9.772;2022-08-18T02:13:19;17.57;;;11.73;;
6499;SDS011;3283;52.330;9.772;2022-08-18T02:15:45;18.60;;;12.10;;
6499;SDS011;3283;52.330;9.772;2022-08-18T02:18:14;19.73;;;11.43;;
6499;SDS011;3283;52.330;9.772;2022-08-18T02:20:42;18.03;;;11.30;;
6499;SDS011;3283;52.330;9.772;2022-08-18T02:23:08;17.10;;;9.60;;
6499;SDS011;3283;52.330;9.772;2022-08-18T02:25:34;17.87;;;11.27;;
6499;SDS011;3283;52.330;9.772;2022-08-18T02:27:59;20.47;;;12.13;;
6499;SDS011;3283;52.330;9.772;2022-08-18T02:30:25;18.77;;;11.73;;
6499;SDS011;3283;52.330;9.772;2022-08-18T02:32:50;25.30;;;13.77;;
6499;SDS011;3283;52.330;9.772;2022-08-18T02:35:16;20.10;;;15.13;;
6499;SDS011;3283;52.330;9.772;2022-08-18T02:37:41;28.27;;;19.60;;
6499;SDS011;3283;52.330;9.772;2022-08-18T02:40:12;32.97;;;23.00;;
6499;SDS011;3283;52.330;9.772;2022-08-18T02:42:38;35.00;;;23.30;;
6499;SDS011;3283;52.330;9.772;2022-08-18T02:45:04;35.57;;;22.97;;
6499;SDS011;3283;52.330;9.772;2022-08-18T02:47:30;33.80;;;22.07;;
6499;SDS011;3283;52.330;9.772;2022-08-18T02:49:56;33.80;;;21.80;;
6499;SDS011;3283;52.330;9.772;2022-08-18T02:52:22;37.60;;;24.80;;
6499;SDS011;3283;52.330;9.772;2022-08-18T02:54:50;32.70;;;21.30;;
6499;SDS011;3283;52.330;9.772;2022-08-18T02:57:16;39.13;;;24.23;;
6499;SDS011;3283;52.330;9.772;2022-08-18T02:59:41;34.73;;;22.90;;
6499;SDS011;3283;52.330;9.772;2022-08-18T03:02:07;31.43;;;21.30;;
6499;SDS011;3283;52.330;9.772;2022-08-18T03:04:33;32.93;;;21.30;;
6499;SDS011;3283;52.330;9.772;2022-08-18T03:07:00;31.33;;;20.43;;
6499;SDS011;3283;52.330;9.772;2022-08-18T03:09:29;32.90;;;22.53;;
6499;SDS011;3283;52.330;9.772;2022-08-18T03:11:55;32.43;;;21.70;;
6499;SDS011;3283;52.330;9.772;2022-08-18T03:14:22;34.10;;;20.40;;
6499;SDS011;3283;52.330;9.772;2022-08-18T03:16:49;29.30;;;20.63;;
6499;SDS011;3283;52.330;9.772;2022-08-18T03:19:15;30.27;;;21.23;;
6499;SDS011;3283;52.330;9.772;2022-08-18T03:21:44;36.47;;;22.47;;
6499;SDS011;3283;52.330;9.772;2022-08-18T03:24:11;37.40;;;21.57;;
6499;SDS011;3283;52.330;9.772;2022-08-18T03:26:41;33.10;;;21.10;;
6499;SDS011;3283;52.330;9.772;2022-08-18T03:29:09;29.70;;;20.50;;
6499;SDS011;3283;52.330;9.772;2022-08-18T03:31:36;30.07;;;20.53;;
6499;SDS011;3283;52.330;9.772;2022-08-18T03:34:03;36.00;;;22.90;;
6499;SDS011;3283;52.330;9.772;2022-08-18T03:36:31;31.83;;;21.70;;
6499;SDS011;3283;52.330;9.772;2022-08-18T03:38:58;32.77;;;22.30;;
6499;SDS011;3283;52.330;9.772;2022-08-18T03:41:27;34.20;;;22.70;;
6499;SDS011;3283;52.330;9.772;2022-08-18T03:43:53;37.90;;;23.53;;
6499;SDS011;3283;52.330;9.772;2022-08-18T03:46:19;36.10;;;24.10;;
6499;SDS011;3283;52.330;9.772;2022-08-18T03:48:46;45.70;;;23.30;;
6499;SDS011;3283;52.330;9.772;2022-08-18T03:51:15;41.40;;;23.13;;
6499;SDS011;3283;52.330;9.772;2022-08-18T03:53:43;40.90;;;25.87;;
6499;SDS011;3283;52.330;9.772;2022-08-18T03:56:11;35.73;;;24.03;;
6499;SDS011;3283;52.330;9.772;2022-08-18T03:58:42;33.23;;;23.90;;
6499;SDS011;3283;52.330;9.772;2022-08-18T04:01:13;33.37;;;22.93;;
6499;SDS011;3283;52.330;9.772;2022-08-18T04:03:41;36.60;;;23.73;;
6499;SDS011;3283;52.330;9.772;2022-08-18T04:06:07;35.03;;;25.50;;
6499;SDS011;3283;52.330;9.772;2022-08-18T04:08:38;43.83;;;26.67;;
6499;SDS011;3283;52.330;9.772;2022-08-18T04:11:04;39.53;;;26.90;;
6499;SDS011;3283;52.330;9.772;2022-08-18T04:13:30;43.40;;;27.50;;
6499;SDS011;3283;52.330;9.772;2022-08-18T04:15:59;47.27;;;30.13;;
6499;SDS011;3283;52.330;9.772;2022-08-18T04:18:24;47.07;;;31.43;;
6499;SDS011;3283;52.330;9.772;2022-08-18T04:20:50;42.37;;;30.37;;
6499;SDS011;3283;52.330;9.772;2022-08-18T04:23:15;47.63;;;31.23;;
6499;SDS011;3283;52.330;9.772;2022-08-18T04:25:41;46.70;;;32.00;;
6499;SDS011;3283;52.330;9.772;2022-08-18T04:28:07;47.47;;;30.93;;
6499;SDS011;3283;52.330;9.772;2022-08-18T04:30:32;45.27;;;30.23;;
6499;SDS011;3283;52.330;9.772;2022-08-18T04:32:59;43.83;;;29.93;;
6499;SDS011;3283;52.330;9.772;2022-08-18T04:35:25;40.47;;;26.70;;
6499;SDS011;3283;52.330;9.772;2022-08-18T04:37:53;44.87;;;30.30;;
6499;SDS011;3283;52.330;9.772;2022-08-18T04:40:19;45.50;;;28.87;;
6499;SDS011;3283;52.330;9.772;2022-08-18T04:42:45;42.13;;;27.40;;
6499;SDS011;3283;52.330;9.772;2022-08-18T04:45:10;45.07;;;30.37;;
6499;SDS011;3283;52.330;9.772;2022-08-18T04:47:37;48.77;;;30.60;;
6499;SDS011;3283;52.330;9.772;2022-08-18T04:50:05;48.10;;;30.17;;
6499;SDS011;3283;52.330;9.772;2022-08-18T04:52:31;42.10;;;28.50;;
6499;SDS011;3283;52.330;9.772;2022-08-18T04:55:35;46.40;;;30.63;;
6499;SDS011;3283;52.330;9.772;2022-08-18T04:58:00;47.17;;;29.00;;
6499;SDS011;3283;52.330;9.772;2022-08-18T05:00:26;45.57;;;30.10;;
6499;SDS011;3283;52.330;9.772;2022-08-18T05:02:51;44.17;;;31.13;;
6499;SDS011;3283;52.330;9.772;2022-08-18T05:05:18;48.50;;;28.00;;
6499;SDS011;3283;52.330;9.772;2022-08-18T05:07:44;42.73;;;28.67;;
6499;SDS011;3283;52.330;9.772;2022-08-18T05:10:11;45.73;;;30.00;;
6499;SDS011;3283;52.330;9.772;2022-08-18T05:12:37;45.20;;;29.87;;
6499;SDS011;3283;52.330;9.772;2022-08-18T05:15:05;43.47;;;29.13;;
6499;SDS011;3283;52.330;9.772;2022-08-18T05:17:32;42.87;;;28.63;;
6499;SDS011;3283;52.330;9.772;2022-08-18T05:20:03;44.00;;;29.23;;
6499;SDS011;3283;52.330;9.772;2022-08-18T05:22:35;40.80;;;24.73;;
6499;SDS011;3283;52.330;9.772;2022-08-18T05:25:03;43.00;;;27.87;;
6499;SDS011;3283;52.330;9.772;2022-08-18T05:27:30;41.73;;;27.53;;
6499;SDS011;3283;52.330;9.772;2022-08-18T05:29:56;43.13;;;27.70;;
6499;SDS011;3283;52.330;9.772;2022-08-18T05:32:22;43.53;;;27.17;;
6499;SDS011;3283;52.330;9.772;2022-08-18T05:34:47;46.93;;;29.23;;
6499;SDS011;3283;52.330;9.772;2022-08-18T05:37:25;47.47;;;28.50;;
6499;SDS011;3283;52.330;9.772;2022-08-18T05:40:02;42.33;;;26.80;;
6499;SDS011;3283;52.330;9.772;2022-08-18T05:42:36;45.17;;;28.53;;
6499;SDS011;3283;52.330;9.772;2022-08-18T05:45:07;37.50;;;25.97;;
6499;SDS011;3283;52.330;9.772;2022-08-18T05:47:35;41.87;;;27.17;;
6499;SDS011;3283;52.330;9.772;2022-08-18T05:50:05;44.50;;;29.00;;
6499;SDS011;3283;52.330;9.772;2022-08-18T05:55:30;37.23;;;25.47;;
6499;SDS011;3283;52.330;9.772;2022-08-18T05:58:32;42.73;;;27.77;;
6499;SDS011;3283;52.330;9.772;2022-08-18T06:01:11;39.33;;;25.40;;
6499;SDS011;3283;52.330;9.772;2022-08-18T06:03:47;41.40;;;26.37;;
6499;SDS011;3283;52.330;9.772;2022-08-18T06:06:26;40.33;;;26.53;;
6499;SDS011;3283;52.330;9.772;2022-08-18T06:11:46;39.47;;;27.20;;
6499;SDS011;3283;52.330;9.772;2022-08-18T06:14:12;45.03;;;28.37;;
6499;SDS011;3283;52.330;9.772;2022-08-18T06:30:19;45.50;;;30.47;;
6499;SDS011;3283;52.330;9.772;2022-08-18T06:35:54;48.40;;;28.83;;
6499;SDS011;3283;52.330;9.772;2022-08-18T06:38:37;53.20;;;31.80;;
6499;SDS011;3283;52.330;9.772;2022-08-18T06:44:09;50.80;;;32.60;;
6499;SDS011;3283;52.330;9.772;2022-08-18T06:49:44;51.77;;;29.53;;
6499;SDS011;3283;52.330;9.772;2022-08-18T06:52:23;51.27;;;30.73;;
6499;SDS011;3283;52.330;9.772;2022-08-18T06:54:55;56.33;;;34.23;;
6499;SDS011;3283;52.330;9.772;2022-08-18T06:57:25;47.40;;;31.30;;
6499;SDS011;3283;52.330;9.772;2022-08-18T07:07:38;55.07;;;34.60;;
6499;SDS011;3283;52.330;9.772;2022-08-18T07:10:07;56.13;;;34.73;;
6499;SDS011;3283;52.330;9.772;2022-08-18T07:13:36;54.97;;;32.87;;
6499;SDS011;3283;52.330;9.772;2022-08-18T07:15:54;57.87;;;35.77;;
6499;SDS011;3283;52.330;9.772;2022-08-18T07:18:39;53.23;;;35.17;;
6499;SDS011;3283;52.330;9.772;2022-08-18T07:21:04;60.10;;;34.57;;
6499;SDS011;3283;52.330;9.772;2022-08-18T07:23:31;57.17;;;34.50;;
6499;SDS011;3283;52.330;9.772;2022-08-18T07:28:32;56.57;;;34.70;;
6499;SDS011;3283;52.330;9.772;2022-08-18T07:31:07;51.13;;;32.13;;
6499;SDS011;3283;52.330;9.772;2022-08-18T07:33:38;62.80;;;36.00;;
6499;SDS011;3283;52.330;9.772;2022-08-18T07:36:05;50.27;;;31.03;;
6499;SDS011;3283;52.330;9.772;2022-08-18T07:38:35;61.00;;;36.07;;
6499;SDS011;3283;52.330;9.772;2022-08-18T07:47:18;62.47;;;35.83;;
6499;SDS011;3283;52.330;9.772;2022-08-18T07:49:53;58.03;;;34.50;;
6499;SDS011;3283;52.330;9.772;2022-08-18T07:55:07;56.23;;;33.13;;
6499;SDS011;3283;52.330;9.772;2022-08-18T07:57:46;51.20;;;31.50;;
6499;SDS011;3283;52.330;9.772;2022-08-18T08:00:43;47.57;;;31.27;;
6499;SDS011;3283;52.330;9.772;2022-08-18T08:06:36;59.33;;;33.30;;
6499;SDS011;3283;52.330;9.772;2022-08-18T08:11:51;48.57;;;30.83;;
6499;SDS011;3283;52.330;9.772;2022-08-18T08:14:41;54.83;;;30.37;;
6499;SDS011;3283;52.330;9.772;2022-08-18T08:30:13;48.90;;;28.37;;
6499;SDS011;3283;52.330;9.772;2022-08-18T08:32:54;49.27;;;29.40;;
6499;SDS011;3283;52.330;9.772;2022-08-18T08:36:01;44.83;;;27.80;;
6499;SDS011;3283;52.330;9.772;2022-08-18T08:41:22;48.10;;;28.70;;
6499;SDS011;3283;52.330;9.772;2022-08-18T08:44:17;57.43;;;28.87;;
6499;SDS011;3283;52.330;9.772;2022-08-18T08:46:48;48.47;;;30.03;;
6499;SDS011;3283;52.330;9.772;2022-08-18T08:51:57;41.40;;;27.23;;
6499;SDS011;3283;52.330;9.772;2022-08-18T08:54:35;43.07;;;27.90;;
6499;SDS011;3283;52.330;9.772;2022-08-18T08:57:06;45.47;;;27.40;;
6499;SDS011;3283;52.330;9.772;2022-08-18T08:59:33;45.60;;;27.83;;
6499;SDS011;3283;52.330;9.772;2022-08-18T09:07:43;40.37;;;25.43;;
6499;SDS011;3283;52.330;9.772;2022-08-18T09:23:51;36.77;;;22.37;;
6499;SDS011;3283;52.330;9.772;2022-08-18T09:29:24;41.23;;;25.00;;
6499;SDS011;3283;52.330;9.772;2022-08-18T09:37:22;38.67;;;23.17;;
6499;SDS011;3283;52.330;9.772;2022-08-18T09:43:10;38.77;;;25.40;;
6499;SDS011;3283;52.330;9.772;2022-08-18T09:45:56;34.50;;;20.53;;
6499;SDS011;3283;52.330;9.772;2022-08-18T09:48:25;38.20;;;21.67;;
6499;SDS011;3283;52.330;9.772;2022-08-18T09:50:55;37.10;;;23.97;;
6499;SDS011;3283;52.330;9.772;2022-08-18T09:56:03;33.10;;;21.63;;
6499;SDS011;3283;52.330;9.772;2022-08-18T10:01:17;30.67;;;21.83;;
6499;SDS011;3283;52.330;9.772;2022-08-18T10:03:43;49.20;;;26.07;;
6499;SDS011;3283;52.330;9.772;2022-08-18T10:06:48;38.43;;;23.77;;
6499;SDS011;3283;52.330;9.772;2022-08-18T10:12:27;33.23;;;22.67;;
6499;SDS011;3283;52.330;9.772;2022-08-18T10:20:33;34.70;;;20.77;;
6499;SDS011;3283;52.330;9.772;2022-08-18T10:23:03;29.50;;;21.50;;
6499;SDS011;3283;52.330;9.772;2022-08-18T10:28:05;32.60;;;20.57;;
6499;SDS011;3283;52.330;9.772;2022-08-18T10:33:04;25.83;;;17.27;;
6499;SDS011;3283;52.330;9.772;2022-08-18T10:40:53;28.33;;;16.10;;
6499;SDS011;3283;52.330;9.772;2022-08-18T10:43:39;25.07;;;18.40;;
6499;SDS011;3283;52.330;9.772;2022-08-18T10:46:20;26.87;;;17.47;;
6499;SDS011;3283;52.330;9.772;2022-08-18T10:48:58;28.20;;;18.77;;
6499;SDS011;3283;52.330;9.772;2022-08-18T10:51:45;28.23;;;19.60;;
6499;SDS011;3283;52.330;9.772;2022-08-18T10:57:13;22.83;;;15.63;;
6499;SDS011;3283;52.330;9.772;2022-08-18T11:05:28;22.67;;;15.50;;
6499;SDS011;3283;52.330;9.772;2022-08-18T11:07:58;27.80;;;16.67;;
6499;SDS011;3283;52.330;9.772;2022-08-18T11:10:38;24.10;;;16.30;;
6499;SDS011;3283;52.330;9.772;2022-08-18T11:18:47;21.40;;;14.07;;
6499;SDS011;3283;52.330;9.772;2022-08-18T11:26:37;17.90;;;11.50;;
6499;SDS011;3283;52.330;9.772;2022-08-18T11:31:49;19.67;;;13.27;;
6499;SDS011;3283;52.330;9.772;2022-08-18T11:34:24;25.23;;;16.17;;
6499;SDS011;3283;52.330;9.772;2022-08-18T11:36:55;21.63;;;14.50;;
6499;SDS011;3283;52.330;9.772;2022-08-18T11:39:23;21.43;;;14.47;;
6499;SDS011;3283;52.330;9.772;2022-08-18T11:41:49;16.73;;;12.13;;
6499;SDS011;3283;52.330;9.772;2022-08-18T11:44:17;18.37;;;13.10;;
6499;SDS011;3283;52.330;9.772;2022-08-18T11:46:46;18.33;;;12.50;;
6499;SDS011;3283;52.330;9.772;2022-08-18T11:49:14;16.23;;;12.17;;
6499;SDS011;3283;52.330;9.772;2022-08-18T11:51:58;17.93;;;11.60;;
6499;SDS011;3283;52.330;9.772;2022-08-18T11:55:00;18.57;;;13.07;;
6499;SDS011;3283;52.330;9.772;2022-08-18T12:03:03;17.50;;;10.93;;
6499;SDS011;3283;52.330;9.772;2022-08-18T12:05:42;17.57;;;11.47;;
6499;SDS011;3283;52.330;9.772;2022-08-18T12:08:22;17.47;;;11.57;;
6499;SDS011;3283;52.330;9.772;2022-08-18T12:11:04;18.13;;;11.77;;
6499;SDS011;3283;52.330;9.772;2022-08-18T12:13:30;15.17;;;10.43;;
6499;SDS011;3283;52.330;9.772;2022-08-18T12:16:09;16.17;;;9.60;;
6499;SDS011;3283;52.330;9.772;2022-08-18T12:18:39;13.03;;;7.90;;
6499;SDS011;3283;52.330;9.772;2022-08-18T12:21:05;11.77;;;8.80;;
6499;SDS011;3283;52.330;9.772;2022-08-18T12:23:31;16.80;;;10.13;;
6499;SDS011;3283;52.330;9.772;2022-08-18T12:25:58;12.33;;;8.50;;
6499;SDS011;3283;52.330;9.772;2022-08-18T12:28:24;19.03;;;9.30;;
6499;SDS011;3283;52.330;9.772;2022-08-18T12:30:51;11.30;;;7.47;;
6499;SDS011;3283;52.330;9.772;2022-08-18T12:33:17;10.00;;;7.50;;
6499;SDS011;3283;52.330;9.772;2022-08-18T12:35:42;14.10;;;8.87;;
6499;SDS011;3283;52.330;9.772;2022-08-18T12:38:08;15.20;;;9.10;;
6499;SDS011;3283;52.330;9.772;2022-08-18T12:40:34;14.63;;;8.90;;
6499;SDS011;3283;52.330;9.772;2022-08-18T12:43:00;16.00;;;8.60;;
6499;SDS011;3283;52.330;9.772;2022-08-18T12:45:26;13.87;;;10.07;;
6499;SDS011;3283;52.330;9.772;2022-08-18T12:47:52;15.57;;;8.63;;
6499;SDS011;3283;52.330;9.772;2022-08-18T12:50:18;12.07;;;8.60;;
6499;SDS011;3283;52.330;9.772;2022-08-18T12:52:44;15.60;;;10.00;;
6499;SDS011;3283;52.330;9.772;2022-08-18T12:55:09;17.40;;;9.13;;
6499;SDS011;3283;52.330;9.772;2022-08-18T12:57:35;11.40;;;8.20;;
6499;SDS011;3283;52.330;9.772;2022-08-18T13:00:00;13.63;;;9.50;;
6499;SDS011;3283;52.330;9.772;2022-08-18T13:02:26;11.90;;;9.10;;
6499;SDS011;3283;52.330;9.772;2022-08-18T13:04:51;13.80;;;9.10;;
6499;SDS011;3283;52.330;9.772;2022-08-18T13:07:17;15.97;;;8.30;;
6499;SDS011;3283;52.330;9.772;2022-08-18T13:09:43;13.67;;;8.87;;
6499;SDS011;3283;52.330;9.772;2022-08-18T13:12:09;12.00;;;8.80;;
6499;SDS011;3283;52.330;9.772;2022-08-18T13:14:35;16.30;;;9.10;;
6499;SDS011;3283;52.330;9.772;2022-08-18T13:17:00;13.40;;;8.33;;
6499;SDS011;3283;52.330;9.772;2022-08-18T13:19:27;9.90;;;7.70;;
6499;SDS011;3283;52.330;9.772;2022-08-18T13:21:52;10.90;;;8.10;;
6499;SDS011;3283;52.330;9.772;2022-08-18T13:24:18;10.83;;;8.30;;
6499;SDS011;3283;52.330;9.772;2022-08-18T13:26:44;16.73;;;10.27;;
6499;SDS011;3283;52.330;9.772;2022-08-18T13:29:11;15.37;;;9.03;;
6499;SDS011;3283;52.330;9.772;2022-08-18T13:31:36;16.40;;;9.33;;
6499;SDS011;3283;52.330;9.772;2022-08-18T13:34:03;14.43;;;9.23;;
6499;SDS011;3283;52.330;9.772;2022-08-18T13:36:31;14.10;;;9.97;;
6499;SDS011;3283;52.330;9.772;2022-08-18T13:39:16;16.27;;;9.77;;
6499;SDS011;3283;52.330;9.772;2022-08-18T13:41:43;12.77;;;7.97;;
6499;SDS011;3283;52.330;9.772;2022-08-18T13:44:11;13.17;;;8.13;;
6499;SDS011;3283;52.330;9.772;2022-08-18T13:46:39;14.50;;;9.37;;
6499;SDS011;3283;52.330;9.772;2022-08-18T13:49:15;11.53;;;8.43;;
6499;SDS011;3283;52.330;9.772;2022-08-18T13:51:42;17.70;;;9.40;;
6499;SDS011;3283;52.330;9.772;2022-08-18T13:54:09;15.43;;;9.53;;
6499;SDS011;3283;52.330;9.772;2022-08-18T13:56:42;13.70;;;8.20;;
6499;SDS011;3283;52.330;9.772;2022-08-18T13:59:08;15.33;;;9.33;;
6499;SDS011;3283;52.330;9.772;2022-08-18T14:01:34;11.73;;;7.57;;
6499;SDS011;3283;52.330;9.772;2022-08-18T14:04:00;15.53;;;8.67;;
6499;SDS011;3283;52.330;9.772;2022-08-18T14:06:26;14.80;;;7.80;;
6499;SDS011;3283;52.330;9.772;2022-08-18T14:08:52;14.03;;;8.47;;
6499;SDS011;3283;52.330;9.772;2022-08-18T14:11:18;13.63;;;8.93;;
6499;SDS011;3283;52.330;9.772;2022-08-18T14:13:50;15.20;;;9.30;;
6499;SDS011;3283;52.330;9.772;2022-08-18T14:16:16;13.33;;;8.73;;
6499;SDS011;3283;52.330;9.772;2022-08-18T14:18:42;17.40;;;9.27;;
6499;SDS011;3283;52.330;9.772;2022-08-18T14:21:08;13.00;;;8.17;;
6499;SDS011;3283;52.330;9.772;2022-08-18T14:23:52;19.23;;;10.97;;
6499;SDS011;3283;52.330;9.772;2022-08-18T14:26:36;13.37;;;8.47;;
6499;SDS011;3283;52.330;9.772;2022-08-18T14:29:15;14.03;;;9.20;;
6499;SDS011;3283;52.330;9.772;2022-08-18T14:31:41;14.40;;;9.10;;
6499;SDS011;3283;52.330;9.772;2022-08-18T14:34:07;9.60;;;7.73;;
6499;SDS011;3283;52.330;9.772;2022-08-18T14:36:33;20.70;;;8.97;;
6499;SDS011;3283;52.330;9.772;2022-08-18T14:38:58;14.87;;;8.30;;
6499;SDS011;3283;52.330;9.772;2022-08-18T14:41:25;15.43;;;10.17;;
6499;SDS011;3283;52.330;9.772;2022-08-18T14:43:51;21.30;;;11.40;;
6499;SDS011;3283;52.330;9.772;2022-08-18T14:46:17;14.47;;;8.63;;
6499;SDS011;3283;52.330;9.772;2022-08-18T14:48:42;9.87;;;8.30;;
6499;SDS011;3283;52.330;9.772;2022-08-18T14:51:08;14.00;;;9.43;;
6499;SDS011;3283;52.330;9.772;2022-08-18T14:53:34;15.13;;;9.60;;
6499;SDS011;3283;52.330;9.772;2022-08-18T14:56:01;12.80;;;7.73;;
6499;SDS011;3283;52.330;9.772;2022-08-18T14:58:29;18.13;;;8.67;;
6499;SDS011;3283;52.330;9.772;2022-08-18T15:00:56;15.47;;;9.43;;
6499;SDS011;3283;52.330;9.772;2022-08-18T15:03:28;10.03;;;8.53;;
6499;SDS011;3283;52.330;9.772;2022-08-18T15:05:55;11.33;;;8.03;;
6499;SDS011;3283;52.330;9.772;2022-08-18T15:08:21;13.93;;;10.20;;
6499;SDS011;3283;52.330;9.772;2022-08-18T15:10:47;12.57;;;8.60;;
6499;SDS011;3283;52.330;9.772;2022-08-18T15:13:13;12.87;;;8.90;;
6499;SDS011;3283;52.330;9.772;2022-08-18T15:15:39;15.30;;;9.50;;
6499;SDS011;3283;52.330;9.772;2022-08-18T15:18:06;15.33;;;9.13;;
6499;SDS011;3283;52.330;9.772;2022-08-18T15:20:32;10.87;;;7.43;;
6499;SDS011;3283;52.330;9.772;2022-08-18T15:22:59;12.07;;;7.77;;
6499;SDS011;3283;52.330;9.772;2022-08-18T15:25:45;12.10;;;6.73;;
6499;SDS011;3283;52.330;9.772;2022-08-18T15:30:42;11.27;;;6.63;;
6499;SDS011;3283;52.330;9.772;2022-08-18T15:33:09;13.73;;;6.70;;
6499;SDS011;3283;52.330;9.772;2022-08-18T15:35:36;10.53;;;6.37;;
6499;SDS011;3283;52.330;9.772;2022-08-18T15:38:03;8.13;;;5.50;;
6499;SDS011;3283;52.330;9.772;2022-08-18T15:40:29;10.13;;;6.50;;
6499;SDS011;3283;52.330;9.772;2022-08-18T15:43:08;16.87;;;7.27;;
6499;SDS011;3283;52.330;9.772;2022-08-18T15:45:34;13.43;;;7.20;;
6499;SDS011;3283;52.330;9.772;2022-08-18T15:48:03;15.63;;;7.67;;
6499;SDS011;3283;52.330;9.772;2022-08-18T15:50:29;14.73;;;7.40;;
6499;SDS011;3283;52.330;9.772;2022-08-18T15:52:56;11.93;;;6.87;;
6499;SDS011;3283;52.330;9.772;2022-08-18T15:55:24;13.80;;;6.27;;
6499;SDS011;3283;52.330;9.772;2022-08-18T15:57:52;9.93;;;6.50;;
6499;SDS011;3283;52.330;9.772;2022-08-18T16:00:18;13.87;;;7.27;;
6499;SDS011;3283;52.330;9.772;2022-08-18T16:02:54;11.17;;;6.90;;
6499;SDS011;3283;52.330;9.772;2022-08-18T16:05:22;12.37;;;6.50;;
6499;SDS011;3283;52.330;9.772;2022-08-18T16:07:50;9.03;;;6.10;;
6499;SDS011;3283;52.330;9.772;2022-08-18T16:10:17;13.23;;;7.27;;
6499;SDS011;3283;52.330;9.772;2022-08-18T16:12:45;16.93;;;7.00;;
6499;SDS011;3283;52.330;9.772;2022-08-18T16:15:15;10.33;;;7.00;;
6499;SDS011;3283;52.330;9.772;2022-08-18T16:17:42;13.50;;;7.60;;
6499;SDS011;3283;52.330;9.772;2022-08-18T16:20:08;9.70;;;6.50;;
6499;SDS011;3283;52.330;9.772;2022-08-18T16:22:35;10.70;;;7.00;;
6499;SDS011;3283;52.330;9.772;2022-08-18T16:25:03;14.20;;;7.20;;
6499;SDS011;3283;52.330;9.772;2022-08-18T16:27:32;11.00;;;7.17;;
6499;SDS011;3283;52.330;9.772;2022-08-18T16:30:05;11.43;;;7.70;;
6499;SDS011;3283;52.330;9.772;2022-08-18T16:32:32;15.03;;;8.17;;
6499;SDS011;3283;52.330;9.772;2022-08-18T16:34:58;12.93;;;8.30;;
6499;SDS011;3283;52.330;9.772;2022-08-18T16:37:23;13.97;;;8.70;;
6499;SDS011;3283;52.330;9.772;2022-08-18T16:39:51;25.23;;;14.77;;
6499;SDS011;3283;52.330;9.772;2022-08-18T16:42:17;15.37;;;8.90;;
6499;SDS011;3283;52.330;9.772;2022-08-18T16:44:43;13.60;;;8.07;;
6499;SDS011;3283;52.330;9.772;2022-08-18T16:47:09;14.00;;;8.37;;
6499;SDS011;3283;52.330;9.772;2022-08-18T16:49:37;12.93;;;8.00;;
6499;SDS011;3283;52.330;9.772;2022-08-18T16:52:03;13.20;;;8.80;;
6499;SDS011;3283;52.330;9.772;2022-08-18T16:54:29;19.50;;;11.83;;
6499;SDS011;3283;52.330;9.772;2022-08-18T16:56:56;12.73;;;8.57;;
6499;SDS011;3283;52.330;9.772;2022-08-18T16:59:23;19.13;;;12.53;;
6499;SDS011;3283;52.330;9.772;2022-08-18T17:02:07;15.60;;;8.87;;
6499;SDS011;3283;52.330;9.772;2022-08-18T17:04:52;22.70;;;12.67;;
6499;SDS011;3283;52.330;9.772;2022-08-18T17:07:17;20.57;;;13.43;;
6499;SDS011;3283;52.330;9.772;2022-08-18T17:09:43;16.63;;;11.83;;
6499;SDS011;3283;52.330;9.772;2022-08-18T17:12:09;18.13;;;10.53;;
6499;SDS011;3283;52.330;9.772;2022-08-18T17:14:35;22.60;;;9.90;;
6499;SDS011;3283;52.330;9.772;2022-08-18T17:17:01;14.20;;;8.40;;
6499;SDS011;3283;52.330;9.772;2022-08-18T17:19:29;16.03;;;8.43;;
6499;SDS011;3283;52.330;9.772;2022-08-18T17:21:58;12.70;;;8.27;;
6499;SDS011;3283;52.330;9.772;2022-08-18T17:24:28;13.13;;;8.67;;
6499;SDS011;3283;52.330;9.772;2022-08-18T17:32:43;14.33;;;9.90;;
6499;SDS011;3283;52.330;9.772;2022-08-18T17:35:13;22.37;;;14.10;;
6499;SDS011;3283;52.330;9.772;2022-08-18T17:37:40;14.70;;;10.17;;
6499;SDS011;3283;52.330;9.772;2022-08-18T17:40:17;18.47;;;11.17;;
6499;SDS011;3283;52.330;9.772;2022-08-18T17:42:50;17.53;;;9.80;;
6499;SDS011;3283;52.330;9.772;2022-08-18T17:45:16;13.87;;;8.47;;
6499;SDS011;3283;52.330;9.772;2022-08-18T17:47:50;13.33;;;9.73;;
6499;SDS011;3283;52.330;9.772;2022-08-18T17:50:32;14.07;;;9.60;;
6499;SDS011;3283;52.330;9.772;2022-08-18T17:53:18;21.03;;;12.43;;
6499;SDS011;3283;52.330;9.772;2022-08-18T17:55:57;19.70;;;11.03;;